createdAt,value
2018-05-29T00:02:06.038Z,97.10
2018-05-29T00:04:33.561Z,97.10
2018-05-29T00:07:01.085Z,97.10
2018-05-29T00:09:28.617Z,97.20
2018-05-29T00:11:56.145Z,97.30
2018-05-29T00:14:23.672Z,97.40
2018-05-29T00:16:52.165Z,97.40
2018-05-29T00:19:20.485Z,97.50
2018-05-29T00:21:48.019Z,97.50
2018-05-29T00:24:15.575Z,97.40
2018-05-29T00:26:43.862Z,97.60
2018-05-29T00:29:11.385Z,97.60
2018-05-29T00:31:40.405Z,97.60
2018-05-29T00:34:07.948Z,98.00
2018-05-29T00:36:35.651Z,97.90
2018-05-29T00:39:03.195Z,97.90
2018-05-29T00:41:31.495Z,98.00
2018-05-29T00:43:59.039Z,98.00
2018-05-29T00:46:26.571Z,98.00
2018-05-29T00:48:54.858Z,98.00
2018-05-29T00:51:23.159Z,98.20
2018-05-29T00:53:50.678Z,98.20
2018-05-29T00:56:19.213Z,98.20
2018-05-29T00:58:46.751Z,98.10
2018-05-29T01:01:14.314Z,98.20
2018-05-29T01:03:41.861Z,98.20
2018-05-29T01:06:09.439Z,98.30
2018-05-29T01:08:37.053Z,98.50
2018-05-29T01:11:04.596Z,98.50
2018-05-29T01:13:32.249Z,98.50
2018-05-29T01:15:59.799Z,98.50
2018-05-29T01:18:27.310Z,98.60
2018-05-29T01:20:54.887Z,98.40
2018-05-29T01:23:22.421Z,98.50
2018-05-29T01:25:49.946Z,98.50
2018-05-29T01:28:17.591Z,98.50
2018-05-29T01:30:45.123Z,98.90
2018-05-29T01:33:12.681Z,98.90
2018-05-29T01:35:40.205Z,98.90
2018-05-29T01:38:08.617Z,99.10
2018-05-29T01:40:36.121Z,99.10
2018-05-29T01:43:03.644Z,99.30
2018-05-29T01:45:31.159Z,99.30
2018-05-29T01:47:58.699Z,99.40
2018-05-29T01:50:26.251Z,99.30
2018-05-29T01:52:53.791Z,99.30
2018-05-29T01:55:21.429Z,99.20
2018-05-29T01:57:48.951Z,99.40
2018-05-29T02:00:17.260Z,99.00
2018-05-29T02:02:44.785Z,99.00
2018-05-29T02:05:12.486Z,99.10
2018-05-29T02:07:40.027Z,99.10
2018-05-29T02:10:07.605Z,99.20
2018-05-29T02:12:35.133Z,99.10
2018-05-29T02:15:03.448Z,99.20
2018-05-29T02:17:31.069Z,99.10
2018-05-29T02:19:59.353Z,99.10
2018-05-29T02:22:26.915Z,99.10
2018-05-29T02:24:54.457Z,99.50
2018-05-29T02:27:22.759Z,99.10
2018-05-29T02:29:50.298Z,99.10
2018-05-29T02:32:17.837Z,99.00
2018-05-29T02:34:46.133Z,99.30
2018-05-29T02:37:14.415Z,99.20
2018-05-29T02:39:42.706Z,99.40
2018-05-29T02:42:10.231Z,99.40
2018-05-29T02:44:37.780Z,99.50
2018-05-29T02:47:05.339Z,99.50
2018-05-29T02:49:34.361Z,99.50
2018-05-29T02:52:02.651Z,99.70
2018-05-29T02:54:30.181Z,99.70
2018-05-29T02:56:57.718Z,99.90
2018-05-29T02:59:25.295Z,99.90
2018-05-29T03:01:52.844Z,99.90
2018-05-29T03:04:21.133Z,99.90
2018-05-29T03:06:49.442Z,99.90
2018-05-29T03:09:17.071Z,99.90
2018-05-29T03:11:45.383Z,99.80
2018-05-29T03:14:12.955Z,99.80
2018-05-29T03:16:40.501Z,99.70
2018-05-29T03:19:08.019Z,99.90
2018-05-29T03:21:36.543Z,99.90
2018-05-29T03:24:04.077Z,99.90
2018-05-29T03:26:32.435Z,99.90
2018-05-29T03:29:00.001Z,99.90
2018-05-29T03:31:28.354Z,99.90
2018-05-29T03:33:57.416Z,99.90
2018-05-29T03:36:25.037Z,99.90
2018-05-29T03:38:53.323Z,99.90
2018-05-29T03:41:20.870Z,99.90
2018-05-29T03:43:48.568Z,99.90
2018-05-29T03:46:16.091Z,99.90
2018-05-29T03:48:44.401Z,99.90
2018-05-29T03:51:12.025Z,99.90
2018-05-29T03:53:40.329Z,99.90
2018-05-29T03:56:07.856Z,99.90
2018-05-29T03:58:35.395Z,99.90
2018-05-29T04:01:03.083Z,99.90
2018-05-29T04:03:31.383Z,99.90
2018-05-29T04:05:58.935Z,99.80
2018-05-29T04:08:26.617Z,99.90
2018-05-29T04:10:54.152Z,99.90
2018-05-29T04:13:21.673Z,99.90
2018-05-29T04:15:49.209Z,99.90
2018-05-29T04:18:16.749Z,99.90
2018-05-29T04:20:44.268Z,99.90
2018-05-29T04:23:12.177Z,99.90
2018-05-29T04:25:39.839Z,99.80
2018-05-29T04:28:07.360Z,99.90
2018-05-29T04:30:35.669Z,99.60
2018-05-29T04:33:03.223Z,99.50
2018-05-29T04:35:30.757Z,99.60
2018-05-29T04:37:59.074Z,99.70
2018-05-29T04:40:26.629Z,99.70
2018-05-29T04:42:54.145Z,99.50
2018-05-29T04:45:22.463Z,99.60
2018-05-29T04:47:49.989Z,99.60
2018-05-29T04:50:18.284Z,99.50
2018-05-29T04:52:45.821Z,99.40
2018-05-29T04:55:14.119Z,99.30
2018-05-29T04:57:41.657Z,99.30
2018-05-29T05:00:10.037Z,99.20
2018-05-29T05:02:38.348Z,99.20
2018-05-29T05:05:05.891Z,99.20
2018-05-29T05:07:33.415Z,99.20
2018-05-29T05:10:01.723Z,99.10
2018-05-29T05:12:29.289Z,99.10
2018-05-29T05:14:56.875Z,99.00
2018-05-29T05:17:24.618Z,99.00
2018-05-29T05:19:52.137Z,98.90
2018-05-29T05:22:20.557Z,98.80
2018-05-29T05:24:48.075Z,98.80
2018-05-29T05:27:16.389Z,98.80
2018-05-29T05:29:44.143Z,98.80
2018-05-29T05:32:11.675Z,98.60
2018-05-29T05:34:39.961Z,98.60
2018-05-29T05:37:08.389Z,98.50
2018-05-29T05:39:35.969Z,98.50
2018-05-29T05:42:03.503Z,98.50
2018-05-29T05:44:31.075Z,98.40
2018-05-29T05:46:58.627Z,98.20
2018-05-29T05:49:26.195Z,98.30
2018-05-29T05:51:53.748Z,98.30
2018-05-29T05:54:21.315Z,98.10
2018-05-29T05:56:48.928Z,98.10
2018-05-29T05:59:16.485Z,98.10
2018-05-29T06:01:44.033Z,97.90
2018-05-29T06:04:12.365Z,98.00
2018-05-29T06:06:39.979Z,97.90
2018-05-29T06:09:07.488Z,97.90
2018-05-29T06:11:35.139Z,97.80
2018-05-29T06:14:02.685Z,97.70
2018-05-29T06:16:30.216Z,97.80
2018-05-29T06:18:57.743Z,97.70
2018-05-29T06:21:25.282Z,97.70
2018-05-29T06:23:52.821Z,97.40
2018-05-29T06:26:20.374Z,97.10
2018-05-29T06:28:47.893Z,97.20
2018-05-29T06:31:16.176Z,97.00
2018-05-29T06:33:44.465Z,97.00
2018-05-29T06:36:12.091Z,97.00
2018-05-29T06:38:39.657Z,97.00
2018-05-29T06:41:07.942Z,96.70
2018-05-29T06:43:35.481Z,96.70
2018-05-29T06:46:03.010Z,96.80
2018-05-29T06:48:30.648Z,96.60
2018-05-29T06:50:58.168Z,96.50
2018-05-29T06:53:25.690Z,96.50
2018-05-29T06:55:53.320Z,96.60
2018-05-29T06:58:20.869Z,96.50
2018-05-29T07:00:48.399Z,96.30
2018-05-29T07:03:15.934Z,96.30
2018-05-29T07:05:43.565Z,96.10
2018-05-29T07:08:11.092Z,96.10
2018-05-29T07:10:38.680Z,96.00
2018-05-29T07:13:06.205Z,96.10
2018-05-29T07:15:34.537Z,95.90
2018-05-29T07:18:02.078Z,95.90
2018-05-29T07:20:29.633Z,95.70
2018-05-29T07:22:57.164Z,95.40
2018-05-29T07:25:24.683Z,95.00
2018-05-29T07:27:52.208Z,94.60
2018-05-29T07:30:19.735Z,94.10
2018-05-29T07:32:47.429Z,93.50
2018-05-29T07:35:14.978Z,92.70
2018-05-29T07:37:42.507Z,92.60
2018-05-29T07:40:10.180Z,92.70
2018-05-29T07:42:37.711Z,92.40
2018-05-29T07:45:06.066Z,92.00
2018-05-29T07:47:33.576Z,92.00
2018-05-29T07:50:01.124Z,92.10
2018-05-29T07:52:29.448Z,92.20
2018-05-29T07:54:57.032Z,92.20
2018-05-29T07:57:24.587Z,92.00
2018-05-29T07:59:52.406Z,91.70
2018-05-29T08:02:20.692Z,91.50
2018-05-29T08:04:48.275Z,91.50
2018-05-29T08:07:15.796Z,91.20
2018-05-29T08:09:44.093Z,91.50
2018-05-29T08:12:11.619Z,91.50
2018-05-29T08:14:39.165Z,91.20
2018-05-29T08:17:06.694Z,91.20
2018-05-29T08:19:34.410Z,91.10
2018-05-29T08:22:01.969Z,90.90
2018-05-29T08:24:30.372Z,91.00
2018-05-29T08:26:57.932Z,91.00
2018-05-29T08:29:25.464Z,91.00
2018-05-29T08:31:52.987Z,90.30
2018-05-29T08:34:20.608Z,90.20
2018-05-29T08:36:48.161Z,90.20
2018-05-29T08:39:15.704Z,89.30
2018-05-29T08:41:43.220Z,89.90
2018-05-29T08:44:11.568Z,88.80
2018-05-29T08:46:39.335Z,88.80
2018-05-29T08:49:06.863Z,89.50
2018-05-29T08:51:34.440Z,89.50
2018-05-29T08:54:01.979Z,89.50
2018-05-29T08:56:29.564Z,89.80
2018-05-29T08:58:57.107Z,89.50
2018-05-29T09:01:24.640Z,88.80
2018-05-29T09:03:52.324Z,87.80
2018-05-29T09:06:19.855Z,88.20
2018-05-29T09:08:48.139Z,87.30
2018-05-29T09:11:16.445Z,87.80
2018-05-29T09:13:44.051Z,87.60
2018-05-29T09:16:11.583Z,88.00
2018-05-29T09:18:39.183Z,87.80
2018-05-29T09:21:07.501Z,85.40
2018-05-29T09:23:35.029Z,85.40
2018-05-29T09:26:02.557Z,84.80
2018-05-29T09:28:30.875Z,85.30
2018-05-29T09:30:59.205Z,84.90
2018-05-29T09:33:26.764Z,85.00
2018-05-29T09:35:54.293Z,84.30
2018-05-29T09:38:21.829Z,84.70
2018-05-29T09:40:49.374Z,83.10
2018-05-29T09:43:17.712Z,82.80
2018-05-29T09:45:45.300Z,82.80
2018-05-29T09:48:12.836Z,81.90
2018-05-29T09:50:40.570Z,82.40
2018-05-29T09:53:08.126Z,82.80
2018-05-29T09:55:35.799Z,82.10
2018-05-29T09:58:03.335Z,80.90
2018-05-29T10:00:36.527Z,80.30
2018-05-29T10:03:04.094Z,80.40
2018-05-29T10:05:31.641Z,80.30
2018-05-29T10:07:59.180Z,78.50
2018-05-29T10:10:27.596Z,78.10
2018-05-29T10:12:55.136Z,78.00
2018-05-29T10:15:22.672Z,77.40
2018-05-29T10:17:50.375Z,76.80
2018-05-29T10:20:17.906Z,76.40
2018-05-29T10:22:46.223Z,75.20
2018-05-29T10:25:13.752Z,75.20
2018-05-29T10:27:41.283Z,75.30
2018-05-29T10:30:09.592Z,74.30
2018-05-29T10:32:37.144Z,74.80
2018-05-29T10:35:04.694Z,73.20
2018-05-29T10:37:33.146Z,72.60
2018-05-29T10:40:01.579Z,73.40
2018-05-29T10:42:29.117Z,73.30
2018-05-29T10:44:56.684Z,72.80
2018-05-29T10:47:24.236Z,72.10
2018-05-29T10:49:52.582Z,71.50
2018-05-29T10:52:20.122Z,71.40
2018-05-29T10:54:47.730Z,71.50
2018-05-29T10:57:15.244Z,70.80
2018-05-29T10:59:42.922Z,70.00
2018-05-29T11:02:10.532Z,69.50
2018-05-29T11:04:38.221Z,68.50
2018-05-29T11:07:05.765Z,68.30
2018-05-29T11:09:33.332Z,67.50
2018-05-29T11:12:00.846Z,67.30
2018-05-29T11:14:29.148Z,66.20
2018-05-29T11:16:56.676Z,66.20
2018-05-29T11:19:24.203Z,66.10
2018-05-29T11:21:51.821Z,65.40
2018-05-29T11:24:19.420Z,66.70
2018-05-29T11:26:46.961Z,65.80
2018-05-29T11:29:14.495Z,64.70
2018-05-29T11:31:42.122Z,63.30
2018-05-29T11:34:10.410Z,62.60
2018-05-29T11:36:38.727Z,61.70
2018-05-29T11:39:06.256Z,61.70
2018-05-29T11:41:33.780Z,61.70
2018-05-29T11:44:01.324Z,63.20
2018-05-29T11:46:29.100Z,63.10
2018-05-29T11:48:56.642Z,61.50
2018-05-29T11:51:24.217Z,61.10
2018-05-29T11:53:51.765Z,61.60
2018-05-29T11:56:19.280Z,60.90
2018-05-29T11:58:46.815Z,59.20
2018-05-29T12:01:15.106Z,60.10
2018-05-29T12:03:42.654Z,59.40
2018-05-29T12:06:10.188Z,59.40
2018-05-29T12:08:37.708Z,58.90
2018-05-29T12:11:05.247Z,57.70
2018-05-29T12:13:32.799Z,58.30
2018-05-29T12:16:00.314Z,58.10
2018-05-29T12:18:27.872Z,57.80
2018-05-29T12:20:55.380Z,57.50
2018-05-29T12:23:22.894Z,55.50
2018-05-29T12:25:50.437Z,56.50
2018-05-29T12:28:18.005Z,57.30
2018-05-29T12:30:45.543Z,56.30
2018-05-29T12:33:13.067Z,55.30
2018-05-29T12:35:40.621Z,55.80
2018-05-29T12:38:08.178Z,54.60
2018-05-29T12:40:36.581Z,55.10
2018-05-29T12:43:04.124Z,55.00
2018-05-29T12:45:31.667Z,54.70
2018-05-29T12:47:59.198Z,54.10
2018-05-29T12:50:26.755Z,54.10
2018-05-29T12:52:54.304Z,53.40
2018-05-29T12:55:21.829Z,53.50
2018-05-29T12:57:49.423Z,53.60
2018-05-29T13:00:17.255Z,54.30
2018-05-29T13:02:44.887Z,54.10
2018-05-29T13:05:12.463Z,54.60
2018-05-29T13:07:40.052Z,53.90
2018-05-29T13:10:08.017Z,54.10
2018-05-29T13:12:35.558Z,53.80
2018-05-29T13:15:03.155Z,51.80
2018-05-29T13:17:30.618Z,50.90
2018-05-29T13:19:58.206Z,51.70
2018-05-29T13:22:26.539Z,49.90
2018-05-29T13:24:54.078Z,49.90
2018-05-29T13:27:21.605Z,50.80
2018-05-29T13:29:49.930Z,50.80
2018-05-29T13:32:17.472Z,50.80
2018-05-29T13:34:44.994Z,48.70
2018-05-29T13:37:13.282Z,48.40
2018-05-29T13:39:41.590Z,46.50
2018-05-29T13:42:09.132Z,46.50
2018-05-29T13:44:36.684Z,47.00
2018-05-29T13:47:04.247Z,47.40
2018-05-29T13:49:31.784Z,47.10
2018-05-29T13:52:00.092Z,48.60
2018-05-29T13:54:27.630Z,48.60
2018-05-29T13:56:55.154Z,48.10
2018-05-29T13:59:22.688Z,49.40
2018-05-29T14:01:50.211Z,50.00
2018-05-29T14:04:17.734Z,48.30
2018-05-29T14:06:45.316Z,46.40
2018-05-29T14:09:12.828Z,45.60
2018-05-29T14:11:40.404Z,45.00
2018-05-29T14:14:09.424Z,44.70
2018-05-29T14:16:37.043Z,44.60
2018-05-29T14:19:04.582Z,45.70
2018-05-29T14:21:32.110Z,45.90
2018-05-29T14:23:59.652Z,44.20
2018-05-29T14:26:28.151Z,46.10
2018-05-29T14:28:56.459Z,45.90
2018-05-29T14:31:24.023Z,45.80
2018-05-29T14:33:51.553Z,46.20
2018-05-29T14:36:19.089Z,45.70
2018-05-29T14:38:46.644Z,47.10
2018-05-29T14:41:14.966Z,47.00
2018-05-29T14:43:42.558Z,47.00
2018-05-29T14:46:10.087Z,46.90
2018-05-29T14:48:37.741Z,47.40
2018-05-29T14:51:05.289Z,47.90
2018-05-29T14:53:32.844Z,47.70
2018-05-29T14:56:00.378Z,48.10
2018-05-29T14:58:27.936Z,48.80
2018-05-29T15:00:56.224Z,48.80
2018-05-29T15:03:24.524Z,49.30
2018-05-29T15:05:52.084Z,49.30
2018-05-29T15:08:19.634Z,46.80
2018-05-29T15:10:47.178Z,45.90
2018-05-29T15:13:14.701Z,45.30
2018-05-29T15:15:42.231Z,46.10
2018-05-29T15:18:09.793Z,46.10
2018-05-29T15:20:37.426Z,45.50
2018-05-29T15:23:04.962Z,45.80
2018-05-29T15:25:33.268Z,46.30
2018-05-29T15:28:00.816Z,46.30
2018-05-29T15:30:28.368Z,45.30
2018-05-29T15:32:56.656Z,46.30
2018-05-29T15:35:24.268Z,46.30
2018-05-29T15:37:51.798Z,46.20
2018-05-29T15:40:19.323Z,47.50
2018-05-29T15:42:46.954Z,47.50
2018-05-29T15:45:14.608Z,47.90
2018-05-29T15:47:42.178Z,48.20
2018-05-29T15:50:10.503Z,46.30
2018-05-29T15:52:38.050Z,46.30
2018-05-29T15:55:05.608Z,45.80
2018-05-29T15:57:33.141Z,46.50
2018-05-29T16:00:00.714Z,50.00
2018-05-29T16:02:29.020Z,54.60
2018-05-29T16:04:56.548Z,54.70
2018-05-29T16:07:24.078Z,57.40
2018-05-29T16:09:51.673Z,58.20
2018-05-29T16:12:19.205Z,59.70
2018-05-29T16:14:46.922Z,61.50
2018-05-29T16:17:14.480Z,62.60
2018-05-29T16:19:42.032Z,62.00
2018-05-29T16:22:09.574Z,61.60
2018-05-29T16:24:37.106Z,60.40
2018-05-29T16:27:05.402Z,60.10
2018-05-29T16:29:32.960Z,60.00
2018-05-29T16:32:00.648Z,59.70
2018-05-29T16:34:28.367Z,59.20
2018-05-29T16:36:56.695Z,60.50
2018-05-29T16:39:24.263Z,60.50
2018-05-29T16:41:51.820Z,60.40
2018-05-29T16:44:19.396Z,60.40
2018-05-29T16:46:46.956Z,60.40
2018-05-29T16:49:14.496Z,60.00
2018-05-29T16:51:42.028Z,60.00
2018-05-29T16:54:12.186Z,59.60
2018-05-29T16:56:39.737Z,59.00
2018-05-29T16:59:07.290Z,58.80
2018-05-29T17:01:34.834Z,59.50
2018-05-29T17:04:02.394Z,59.40
2018-05-29T17:06:29.922Z,59.00
2018-05-29T17:08:58.215Z,59.00
2018-05-29T17:11:25.747Z,59.00
2018-05-29T17:13:53.278Z,58.20
2018-05-29T17:16:21.107Z,58.30
2018-05-29T17:18:50.621Z,58.20
2018-05-29T17:21:20.426Z,57.50
2018-05-29T17:23:48.026Z,57.40
2018-05-29T17:26:15.610Z,57.00
2018-05-29T17:28:43.196Z,57.90
2018-05-29T17:31:11.492Z,58.00
2018-05-29T17:33:39.068Z,58.00
2018-05-29T17:36:06.654Z,57.10
2018-05-29T17:38:34.899Z,56.40
2018-05-29T17:41:02.478Z,57.20
2018-05-29T17:43:31.212Z,56.20
2018-05-29T17:45:59.741Z,55.80
2018-05-29T17:48:28.105Z,55.00
2018-05-29T17:50:55.638Z,55.30
2018-05-29T17:53:23.208Z,54.30
2018-05-29T17:55:50.742Z,53.40
2018-05-29T17:58:18.294Z,53.00
2018-05-29T18:00:45.830Z,52.50
2018-05-29T18:03:13.388Z,53.10
2018-05-29T18:05:42.426Z,54.80
2018-05-29T18:08:09.964Z,54.90
2018-05-29T18:10:37.507Z,55.00
2018-05-29T18:13:05.788Z,54.30
2018-05-29T18:15:34.140Z,54.10
2018-05-29T18:18:01.702Z,54.20
2018-05-29T18:20:29.250Z,54.60
2018-05-29T18:22:56.804Z,55.10
2018-05-29T18:25:24.350Z,55.50
2018-05-29T18:27:51.912Z,55.00
2018-05-29T18:30:19.462Z,56.00
2018-05-29T18:32:47.014Z,59.20
2018-05-29T18:35:14.530Z,60.00
2018-05-29T18:37:42.055Z,62.00
2018-05-29T18:40:09.604Z,63.60
2018-05-29T18:42:37.142Z,64.90
2018-05-29T18:45:04.705Z,64.40
2018-05-29T18:47:32.240Z,66.20
2018-05-29T18:50:00.584Z,72.00
2018-05-29T18:52:28.095Z,72.00
2018-05-29T18:54:55.630Z,73.90
2018-05-29T18:57:24.119Z,75.90
2018-05-29T18:59:52.428Z,76.80
2018-05-29T19:02:19.996Z,76.80
2018-05-29T19:04:47.539Z,80.40
2018-05-29T19:07:15.065Z,79.30
2018-05-29T19:09:42.644Z,75.30
2018-05-29T19:12:10.209Z,77.80
2018-05-29T19:14:37.748Z,77.70
2018-05-29T19:17:06.137Z,82.70
2018-05-29T19:19:33.661Z,82.70
2018-05-29T19:22:01.180Z,85.50
2018-05-29T19:24:28.736Z,88.00
2018-05-29T19:26:56.285Z,90.60
2018-05-29T19:29:23.811Z,91.20
2018-05-29T19:31:51.388Z,90.70
2018-05-29T19:34:19.725Z,93.30
2018-05-29T19:36:47.353Z,93.30
2018-05-29T19:39:14.898Z,93.10
2018-05-29T19:41:42.433Z,92.40
2018-05-29T19:44:10.731Z,93.60
2018-05-29T19:46:38.252Z,93.60
2018-05-29T19:49:05.801Z,94.80
2018-05-29T19:51:33.332Z,95.70
2018-05-29T19:54:00.887Z,96.00
2018-05-29T19:56:28.408Z,95.20
2018-05-29T19:58:55.952Z,95.00
2018-05-29T20:01:23.511Z,95.70
2018-05-29T20:03:51.825Z,94.90
2018-05-29T20:06:19.374Z,94.90
2018-05-29T20:08:46.891Z,96.70
2018-05-29T20:11:14.436Z,96.60
2018-05-29T20:13:42.005Z,97.00
2018-05-29T20:16:09.575Z,97.80
2018-05-29T20:18:37.126Z,97.20
2018-05-29T20:21:05.213Z,96.60
2018-05-29T20:23:33.520Z,96.70
2018-05-29T20:26:01.280Z,96.70
2018-05-29T20:28:28.819Z,96.20
2018-05-29T20:30:56.352Z,97.40
2018-05-29T20:33:23.909Z,98.20
2018-05-29T20:35:51.429Z,97.60
2018-05-29T20:38:18.960Z,96.80
2018-05-29T20:40:46.547Z,97.30
2018-05-29T20:43:14.094Z,96.40
2018-05-29T20:45:41.625Z,97.10
2018-05-29T20:48:09.920Z,97.10
2018-05-29T20:50:37.441Z,97.10
2018-05-29T20:53:05.003Z,97.60
2018-05-29T20:55:32.538Z,98.20
2018-05-29T20:58:00.106Z,98.40
2018-05-29T21:00:27.659Z,97.70
2018-05-29T21:02:55.181Z,98.10
2018-05-29T21:05:22.699Z,99.30
2018-05-29T21:07:50.243Z,98.40
2018-05-29T21:10:17.791Z,98.60
2018-05-29T21:12:45.323Z,98.20
2018-05-29T21:15:12.889Z,98.80
2018-05-29T21:17:40.489Z,99.20
2018-05-29T21:20:08.057Z,99.90
2018-05-29T21:22:35.603Z,99.90
2018-05-29T21:25:03.159Z,99.50
2018-05-29T21:27:30.711Z,99.90
2018-05-29T21:29:58.249Z,99.90
2018-05-29T21:32:25.781Z,99.90
2018-05-29T21:34:53.352Z,99.90
2018-05-29T21:37:20.907Z,99.50
2018-05-29T21:39:48.440Z,99.90
2018-05-29T21:42:16.725Z,99.20
2018-05-29T21:44:44.240Z,99.10
2018-05-29T21:47:11.803Z,98.90
2018-05-29T21:49:39.355Z,99.00
2018-05-29T21:52:06.898Z,99.10
2018-05-29T21:54:34.419Z,99.30
2018-05-29T21:57:01.953Z,99.20
2018-05-29T21:59:29.540Z,98.40
2018-05-29T22:01:57.078Z,98.20
2018-05-29T22:04:24.625Z,99.00
2018-05-29T22:06:52.177Z,98.90
2018-05-29T22:09:19.703Z,99.70
2018-05-29T22:11:47.239Z,99.60
2018-05-29T22:14:15.536Z,99.90
2018-05-29T22:16:43.094Z,99.90
2018-05-29T22:19:10.645Z,99.90
2018-05-29T22:21:38.212Z,99.90
2018-05-29T22:24:06.030Z,99.90
2018-05-29T22:26:34.344Z,99.50
2018-05-29T22:29:01.891Z,99.50
2018-05-29T22:31:29.451Z,99.50
2018-05-29T22:33:57.095Z,99.90
2018-05-29T22:36:25.471Z,99.20
2018-05-29T22:38:53.808Z,99.60
2018-05-29T22:41:21.333Z,99.60
2018-05-29T22:43:48.907Z,99.80
2018-05-29T22:46:16.448Z,99.90
2018-05-29T22:48:44.046Z,99.90
2018-05-29T22:51:11.659Z,99.90
2018-05-29T22:53:39.896Z,99.90
2018-05-29T22:56:07.423Z,99.90
2018-05-29T22:58:34.949Z,99.90
2018-05-29T23:01:02.528Z,99.90
2018-05-29T23:03:30.083Z,99.90
2018-05-29T23:05:59.586Z,99.90
2018-05-29T23:08:27.119Z,99.90
2018-05-29T23:10:55.453Z,99.90
2018-05-29T23:13:22.995Z,99.90
2018-05-29T23:15:50.524Z,99.90
2018-05-29T23:18:18.048Z,99.90
2018-05-29T23:20:45.585Z,99.90
2018-05-29T23:23:13.118Z,99.90
2018-05-29T23:25:40.650Z,99.90
2018-05-29T23:28:08.175Z,99.90
2018-05-29T23:30:35.770Z,99.90
2018-05-29T23:33:04.072Z,99.90
2018-05-29T23:35:31.599Z,99.90
2018-05-29T23:37:59.876Z,99.90
2018-05-29T23:40:28.163Z,99.90
2018-05-29T23:42:55.693Z,99.90
2018-05-29T23:45:23.229Z,99.90
2018-05-29T23:47:50.774Z,99.90
2018-05-29T23:50:18.308Z,99.90
2018-05-29T23:52:45.860Z,99.90
2018-05-29T23:55:13.374Z,99.90
2018-05-29T23:57:40.905Z,99.90
